Time,TemperatureF,DewpointF,PressureIn,WindDirection,WindDirectionDegrees,WindSpeedMPH,WindSpeedGustMPH,Humidity,HourlyPrecipIn,Conditions,Clouds,dailyrainin,SoftwareType,DateUTC
2013-03-26 00:00:00,49.4,43.0,30.00,SSW,195,0.0,-999.0,79,-99.99,,,0.00,weatherlink.com 1.10,2013-03-26 07:00:00,
2013-03-26 00:15:00,49.4,44.0,30.00,SW,217,0.0,-999.0,81,-99.99,,,0.00,weatherlink.com 1.10,2013-03-26 07:15:00,
2013-03-26 00:30:00,49.2,44.0,30.00,SSE,158,1.0,-999.0,81,-99.99,,,0.00,weatherlink.com 1.10,2013-03-26 07:30:00,
2013-03-26 00:45:00,48.9,43.0,30.00,SE,146,0.0,-999.0,81,-99.99,,,0.00,weatherlink.com 1.10,2013-03-26 07:45:00,
2013-03-26 01:00:00,48.6,43.0,30.00,SSE,152,0.0,-999.0,82,-99.99,,,0.00,weatherlink.com 1.10,2013-03-26 08:00:00,
2013-03-26 01:15:00,48.8,44.0,29.99,SSE,152,0.0,-999.0,82,-99.99,,,0.00,weatherlink.com 1.10,2013-03-26 08:15:00,
2013-03-26 01:30:00,48.9,44.0,29.99,SSE,152,0.0,-999.0,82,-99.99,,,0.00,weatherlink.com 1.10,2013-03-26 08:30:00,
2013-03-26 01:45:00,48.9,43.0,29.99,SSE,152,0.0,-999.0,81,-99.99,,,0.00,weatherlink.com 1.10,2013-03-26 08:45:00,
2013-03-26 02:00:00,48.9,43.0,29.99,SSE,152,0.0,-999.0,80,-99.99,,,0.00,weatherlink.com 1.10,2013-03-26 09:00:00,
2013-03-26 02:15:00,48.6,43.0,29.99,SSE,152,0.0,-999.0,80,-99.99,,,0.00,weatherlink.com 1.10,2013-03-26 09:15:00,
2013-03-26 02:30:00,48.3,42.0,29.98,SSE,152,0.0,-999.0,80,-99.99,,,0.00,weatherlink.com 1.10,2013-03-26 09:30:00,
2013-03-26 02:45:00,48.2,43.0,29.98,SE,131,0.0,-999.0,81,-99.99,,,0.00,weatherlink.com 1.10,2013-03-26 09:45:00,
2013-03-26 03:00:00,48.5,43.0,29.97,SE,135,0.0,-999.0,81,-99.99,,,0.00,weatherlink.com 1.10,2013-03-26 10:00:00,
2013-03-26 03:15:00,48.5,43.0,29.97,SSE,164,0.0,-999.0,81,-99.99,,,0.00,weatherlink.com 1.10,2013-03-26 10:15:00,
2013-03-26 03:30:00,48.3,43.0,29.97,South,188,0.0,-999.0,82,-99.99,,,0.00,weatherlink.com 1.10,2013-03-26 10:30:00,
2013-03-26 03:45:00,48.3,43.0,29.97,South,186,0.0,-999.0,83,-99.99,,,0.00,weatherlink.com 1.10,2013-03-26 10:45:00,
2013-03-26 04:00:00,48.2,43.0,29.97,South,183,0.0,-999.0,83,-99.99,,,0.00,weatherlink.com 1.10,2013-03-26 11:00:00,
2013-03-26 04:15:00,48.2,44.0,29.97,SE,142,0.0,-999.0,84,-99.99,,,0.00,weatherlink.com 1.10,2013-03-26 11:15:00,
2013-03-26 04:30:00,48.2,44.0,29.97,SE,135,0.0,-999.0,84,-99.99,,,0.00,weatherlink.com 1.10,2013-03-26 11:30:00,
2013-03-26 04:45:00,48.0,43.0,29.97,SW,221,0.0,-999.0,84,-99.99,,,0.00,weatherlink.com 1.10,2013-03-26 11:45:00,
2013-03-26 05:00:00,47.9,43.0,29.97,SSW,194,0.0,-999.0,84,-99.99,,,0.00,weatherlink.com 1.10,2013-03-26 12:00:00,
2013-03-26 05:15:00,47.9,43.0,29.97,SSE,165,0.0,-999.0,84,-99.99,,,0.00,weatherlink.com 1.10,2013-03-26 12:15:00,
2013-03-26 05:30:00,48.0,43.0,29.97,SW,219,0.0,-999.0,84,-99.99,,,0.00,weatherlink.com 1.10,2013-03-26 12:30:00,
2013-03-26 05:45:00,48.0,43.0,29.97,South,169,1.0,-999.0,84,-99.99,,,0.00,weatherlink.com 1.10,2013-03-26 12:45:00,
2013-03-26 06:00:00,47.7,43.0,29.97,SSE,167,0.0,-999.0,84,-99.99,,,0.00,weatherlink.com 1.10,2013-03-26 13:00:00,
2013-03-26 06:15:00,47.4,43.0,29.97,SSE,167,0.0,-999.0,85,-99.99,,,0.00,weatherlink.com 1.10,2013-03-26 13:15:00,
2013-03-26 06:30:00,47.4,43.0,29.97,WSW,238,0.0,-999.0,85,-99.99,,,0.00,weatherlink.com 1.10,2013-03-26 13:30:00,
2013-03-26 06:45:00,47.4,43.0,29.97,WSW,237,0.0,-999.0,86,-99.99,,,0.00,weatherlink.com 1.10,2013-03-26 13:45:00,
2013-03-26 07:00:00,47.4,43.0,29.97,SSE,162,0.0,-999.0,86,-99.99,,,0.00,weatherlink.com 1.10,2013-03-26 14:00:00,
2013-03-26 07:15:00,47.6,44.0,29.98,SSE,155,0.0,-999.0,86,-99.99,,,0.00,weatherlink.com 1.10,2013-03-26 14:15:00,
2013-03-26 07:30:00,47.9,44.0,29.98,SSE,155,0.0,-999.0,86,-99.99,,,0.00,weatherlink.com 1.10,2013-03-26 14:30:00,
2013-03-26 07:45:00,48.0,44.0,29.99,SSE,155,0.0,-999.0,86,-99.99,,,0.00,weatherlink.com 1.10,2013-03-26 14:45:00,
2013-03-26 08:00:00,48.2,44.0,29.99,South,186,0.0,-999.0,85,-99.99,,,0.00,weatherlink.com 1.10,2013-03-26 15:00:00,
2013-03-26 08:15:00,48.5,44.0,29.99,South,186,0.0,-999.0,84,-99.99,,,0.00,weatherlink.com 1.10,2013-03-26 15:15:00,
2013-03-26 08:30:00,48.6,44.0,29.99,SE,146,0.0,-999.0,83,-99.99,,,0.00,weatherlink.com 1.10,2013-03-26 15:30:00,
2013-03-26 08:45:00,49.6,44.0,30.00,SW,227,0.0,-999.0,82,-99.99,,,0.00,weatherlink.com 1.10,2013-03-26 15:45:00,
2013-03-26 09:00:00,50.5,45.0,30.00,SE,128,0.0,-999.0,80,-99.99,,,0.00,weatherlink.com 1.10,2013-03-26 16:00:00,
2013-03-26 09:15:00,52.2,44.0,30.00,South,169,0.0,-999.0,74,-99.99,,,0.00,weatherlink.com 1.10,2013-03-26 16:15:00,
2013-03-26 09:30:00,54.1,44.0,30.00,ESE,123,1.0,-999.0,68,-99.99,,,0.00,weatherlink.com 1.10,2013-03-26 16:30:00,
2013-03-26 09:45:00,54.7,43.0,30.00,SW,223,0.0,-999.0,65,-99.99,,,0.00,weatherlink.com 1.10,2013-03-26 16:45:00,
2013-03-26 10:00:00,55.6,43.0,30.00,WSW,252,0.0,-999.0,62,-99.99,,,0.00,weatherlink.com 1.10,2013-03-26 17:00:00,
2013-03-26 10:16:00,56.5,43.0,30.00,West,277,0.0,-999.0,62,-99.99,,,0.00,weatherlink.com 1.10,2013-03-26 17:16:00,
2013-03-26 10:31:00,57.5,44.0,30.00,SSW,212,3.0,-999.0,60,-99.99,,,0.00,weatherlink.com 1.10,2013-03-26 17:31:00,
2013-03-26 10:45:00,57.8,44.0,30.00,South,178,0.0,-999.0,60,-99.99,,,0.00,weatherlink.com 1.10,2013-03-26 17:45:00,
2013-03-26 11:00:00,58.4,44.0,30.00,South,179,0.0,-999.0,59,-99.99,,,0.00,weatherlink.com 1.10,2013-03-26 18:00:00,
2013-03-26 11:31:00,59.3,44.0,30.00,SSE,159,2.0,-999.0,58,-99.99,,,0.00,weatherlink.com 1.10,2013-03-26 18:31:00,
2013-03-26 11:46:00,60.2,44.0,30.00,East,101,0.0,-999.0,56,-99.99,,,0.00,weatherlink.com 1.10,2013-03-26 18:46:00,
2013-03-26 12:01:00,60.5,45.0,30.00,SW,227,0.0,-999.0,57,-99.99,,,0.00,weatherlink.com 1.10,2013-03-26 19:01:00,
2013-03-26 12:17:00,60.4,45.0,30.00,WSW,246,1.0,-999.0,58,-99.99,,,0.00,weatherlink.com 1.10,2013-03-26 19:17:00,
2013-03-26 12:31:00,60.2,46.0,30.00,WSW,238,0.0,-999.0,59,-99.99,,,0.00,weatherlink.com 1.10,2013-03-26 19:31:00,
2013-03-26 12:47:00,60.1,46.0,30.00,SW,236,0.0,-999.0,60,-99.99,,,0.00,weatherlink.com 1.10,2013-03-26 19:47:00,
2013-03-26 13:02:00,61.6,46.0,30.00,West,265,1.0,-999.0,57,-99.99,,,0.00,weatherlink.com 1.10,2013-03-26 20:02:00,
2013-03-26 13:47:00,61.8,46.0,30.00,South,188,2.0,-999.0,57,-99.99,,,0.00,weatherlink.com 1.10,2013-03-26 20:47:00,
2013-03-26 14:02:00,61.6,46.0,29.99,WNW,283,1.0,-999.0,58,-99.99,,,0.00,weatherlink.com 1.10,2013-03-26 21:02:00,
2013-03-26 14:17:00,60.9,46.0,29.98,SW,229,2.0,-999.0,58,-99.99,,,0.00,weatherlink.com 1.10,2013-03-26 21:17:00,
2013-03-26 14:32:00,61.3,46.0,29.98,South,187,5.0,-999.0,57,-99.99,,,0.00,weatherlink.com 1.10,2013-03-26 21:32:00,
2013-03-26 14:47:00,62.0,47.0,29.98,South,191,1.0,-999.0,58,-99.99,,,0.00,weatherlink.com 1.10,2013-03-26 21:47:00,
2013-03-26 15:02:00,60.9,46.0,29.98,SSW,208,1.0,-999.0,59,-99.99,,,0.00,weatherlink.com 1.10,2013-03-26 22:02:00,
2013-03-26 15:16:00,61.3,47.0,29.97,WSW,241,0.0,-999.0,60,-99.99,,,0.00,weatherlink.com 1.10,2013-03-26 22:16:00,
2013-03-26 15:46:00,61.2,47.0,29.97,WSW,254,1.0,-999.0,59,-99.99,,,0.00,weatherlink.com 1.10,2013-03-26 22:46:00,
2013-03-26 16:01:00,62.4,46.0,29.97,SW,229,0.0,-999.0,56,-99.99,,,0.00,weatherlink.com 1.10,2013-03-26 23:01:00,
2013-03-26 16:17:00,61.6,46.0,29.97,ESE,123,2.0,-999.0,58,-99.99,,,0.00,weatherlink.com 1.10,2013-03-26 23:17:00,
2013-03-26 16:32:00,59.8,47.0,29.97,SSW,201,0.0,-999.0,63,-99.99,,,0.00,weatherlink.com 1.10,2013-03-26 23:32:00,
2013-03-26 16:46:00,60.5,47.0,29.96,SE,129,0.0,-999.0,62,-99.99,,,0.00,weatherlink.com 1.10,2013-03-26 23:46:00,
2013-03-26 17:01:00,60.7,47.0,29.96,SSW,212,1.0,-999.0,61,-99.99,,,0.00,weatherlink.com 1.10,2013-03-27 00:01:00,
2013-03-26 17:46:00,59.9,45.0,29.95,SSE,159,0.0,-999.0,59,-99.99,,,0.00,weatherlink.com 1.10,2013-03-27 00:46:00,
2013-03-26 18:01:00,58.6,46.0,29.95,SE,146,0.0,-999.0,64,-99.99,,,0.00,weatherlink.com 1.10,2013-03-27 01:01:00,
2013-03-26 18:16:00,56.3,46.0,29.96,ESE,121,1.0,-999.0,68,-99.99,,,0.00,weatherlink.com 1.10,2013-03-27 01:16:00,
2013-03-26 18:31:00,55.4,46.0,29.96,SE,140,0.0,-999.0,71,-99.99,,,0.00,weatherlink.com 1.10,2013-03-27 01:31:00,
2013-03-26 18:46:00,55.0,46.0,29.96,SSW,198,0.0,-999.0,73,-99.99,,,0.00,weatherlink.com 1.10,2013-03-27 01:46:00,
2013-03-26 19:02:00,54.8,46.0,29.96,East,95,0.0,-999.0,73,-99.99,,,0.00,weatherlink.com 1.10,2013-03-27 02:02:00,
2013-03-26 19:16:00,54.5,46.0,29.96,SW,220,4.0,-999.0,73,-99.99,,,0.00,weatherlink.com 1.10,2013-03-27 02:16:00,
2013-03-26 19:31:00,54.1,46.0,29.96,SW,220,2.0,-999.0,73,-99.99,,,0.00,weatherlink.com 1.10,2013-03-27 02:31:00,
2013-03-26 19:46:00,53.8,46.0,29.96,SSE,163,0.0,-999.0,75,-99.99,,,0.00,weatherlink.com 1.10,2013-03-27 02:46:00,
2013-03-26 20:02:00,53.5,45.0,29.96,SE,141,0.0,-999.0,74,-99.99,,,0.00,weatherlink.com 1.10,2013-03-27 03:02:00,
2013-03-26 20:16:00,53.3,46.0,29.97,SE,132,3.0,-999.0,76,-99.99,,,0.00,weatherlink.com 1.10,2013-03-27 03:16:00,
2013-03-26 20:31:00,53.2,46.0,29.97,South,188,0.0,-999.0,77,-99.99,,,0.00,weatherlink.com 1.10,2013-03-27 03:31:00,
2013-03-26 20:47:00,52.9,46.0,29.97,East,92,0.0,-999.0,78,-99.99,,,0.00,weatherlink.com 1.10,2013-03-27 03:47:00,
2013-03-26 21:02:00,52.6,46.0,29.97,SE,140,2.0,-999.0,79,-99.99,,,0.00,weatherlink.com 1.10,2013-03-27 04:02:00,
2013-03-26 21:16:00,52.3,46.0,29.97,SSW,204,1.0,-999.0,80,-99.99,,,0.00,weatherlink.com 1.10,2013-03-27 04:16:00,
2013-03-26 21:32:00,51.9,47.0,29.98,SSE,152,0.0,-999.0,82,-99.99,,,0.00,weatherlink.com 1.10,2013-03-27 04:32:00,
2013-03-26 21:47:00,51.6,46.0,29.98,SSE,157,0.0,-999.0,82,-99.99,,,0.00,weatherlink.com 1.10,2013-03-27 04:47:00,
2013-03-26 22:02:00,51.1,46.0,29.98,SSE,148,0.0,-999.0,84,-99.99,,,0.00,weatherlink.com 1.10,2013-03-27 05:02:00,
2013-03-26 22:17:00,51.0,47.0,29.98,ESE,121,0.0,-999.0,85,-99.99,,,0.00,weatherlink.com 1.10,2013-03-27 05:17:00,
2013-03-26 22:32:00,50.7,46.0,29.98,ESE,115,0.0,-999.0,85,-99.99,,,0.00,weatherlink.com 1.10,2013-03-27 05:32:00,
2013-03-26 22:47:00,50.2,46.0,29.98,ESE,115,0.0,-999.0,85,-99.99,,,0.00,weatherlink.com 1.10,2013-03-27 05:47:00,
2013-03-26 23:02:00,49.9,46.0,29.97,ESE,115,1.0,-999.0,85,-99.99,,,0.00,weatherlink.com 1.10,2013-03-27 06:02:00,
2013-03-26 23:17:00,49.8,46.0,29.98,ESE,115,0.0,-999.0,85,-99.99,,,0.00,weatherlink.com 1.10,2013-03-27 06:17:00,
2013-03-26 23:32:00,49.8,46.0,29.98,ESE,115,0.0,-999.0,85,-99.99,,,0.00,weatherlink.com 1.10,2013-03-27 06:32:00,
2013-03-26 23:47:00,49.8,45.0,29.98,ESE,116,0.0,-999.0,84,-99.99,,,0.00,weatherlink.com 1.10,2013-03-27 06:47:00,